createdAt,value
2018-08-20T00:01:01.800Z,52.00
2018-08-20T00:03:42.465Z,52.20
2018-08-20T00:06:14.008Z,52.70
2018-08-20T00:08:45.459Z,52.70
2018-08-20T00:11:17.233Z,53.10
2018-08-20T00:13:48.553Z,53.00
2018-08-20T00:16:19.740Z,52.90
2018-08-20T00:18:51.136Z,52.70
2018-08-20T00:21:22.518Z,51.80
2018-08-20T00:23:53.950Z,51.50
2018-08-20T00:26:25.822Z,52.20
2018-08-20T00:28:57.359Z,52.70
2018-08-20T00:31:28.881Z,52.30
2018-08-20T00:34:00.163Z,51.80
2018-08-20T00:36:31.460Z,52.50
2018-08-20T00:39:02.801Z,52.80
2018-08-20T00:41:34.138Z,52.80
2018-08-20T00:44:09.849Z,52.50
2018-08-20T00:46:41.696Z,52.30
2018-08-20T00:49:13.928Z,52.70
2018-08-20T00:51:45.713Z,52.80
2018-08-20T00:54:16.941Z,53.30
2018-08-20T00:56:48.369Z,53.30
2018-08-20T00:59:19.783Z,53.50
2018-08-20T01:01:51.157Z,53.60
2018-08-20T01:04:22.688Z,53.80
2018-08-20T01:06:54.139Z,54.00
2018-08-20T01:09:25.662Z,54.00
2018-08-20T01:11:57.064Z,54.30
2018-08-20T01:14:28.608Z,54.50
2018-08-20T01:16:59.857Z,54.90
2018-08-20T01:19:31.354Z,54.50
2018-08-20T01:22:02.694Z,54.70
2018-08-20T01:24:34.215Z,54.60
2018-08-20T01:27:05.779Z,54.80
2018-08-20T01:29:36.912Z,54.90
2018-08-20T01:32:08.354Z,55.10
2018-08-20T01:34:39.680Z,54.50
2018-08-20T01:37:11.349Z,54.60
2018-08-20T01:39:42.664Z,54.50
2018-08-20T01:42:18.585Z,54.50
2018-08-20T01:44:49.787Z,54.80
2018-08-20T01:47:21.427Z,54.60
2018-08-20T01:49:52.681Z,54.50
2018-08-20T01:52:24.492Z,55.10
2018-08-20T01:54:55.799Z,54.80
2018-08-20T01:57:27.052Z,54.50
2018-08-20T01:59:58.369Z,54.30
2018-08-20T02:02:30.306Z,54.60
2018-08-20T02:05:02.296Z,54.30
2018-08-20T02:07:33.867Z,54.40
2018-08-20T02:10:05.590Z,54.70
2018-08-20T02:12:36.788Z,54.70
2018-08-20T02:15:08.155Z,54.70
2018-08-20T02:17:39.799Z,55.10
2018-08-20T02:20:11.327Z,55.70
2018-08-20T02:22:42.491Z,55.60
2018-08-20T02:25:14.181Z,55.50
2018-08-20T02:27:45.779Z,55.70
2018-08-20T02:30:17.126Z,55.80
2018-08-20T02:32:48.300Z,55.70
2018-08-20T02:35:19.608Z,55.90
2018-08-20T02:37:51.271Z,55.70
2018-08-20T02:40:22.994Z,56.30
2018-08-20T02:42:54.470Z,55.80
2018-08-20T02:45:25.914Z,55.90
2018-08-20T02:47:57.264Z,56.20
2018-08-20T02:50:29.018Z,56.20
2018-08-20T02:53:00.501Z,56.50
2018-08-20T02:55:31.728Z,56.30
2018-08-20T02:58:03.291Z,56.30
2018-08-20T03:00:34.819Z,56.30
2018-08-20T03:03:06.389Z,55.80
2018-08-20T03:05:38.184Z,56.00
2018-08-20T03:08:09.561Z,56.10
2018-08-20T03:10:40.803Z,55.80
2018-08-20T03:13:12.200Z,55.90
2018-08-20T03:15:43.623Z,56.60
2018-08-20T03:18:15.176Z,56.40
2018-08-20T03:20:47.270Z,56.00
2018-08-20T03:23:18.819Z,56.80
2018-08-20T03:25:50.316Z,56.60
2018-08-20T03:28:21.703Z,56.20
2018-08-20T03:30:52.920Z,56.60
2018-08-20T03:33:24.216Z,56.80
2018-08-20T03:35:55.730Z,57.10
2018-08-20T03:38:27.291Z,57.20
2018-08-20T03:40:58.846Z,56.80
2018-08-20T03:43:30.439Z,56.80
2018-08-20T03:46:02.142Z,56.80
2018-08-20T03:48:33.739Z,57.10
2018-08-20T03:51:05.098Z,57.20
2018-08-20T03:53:36.611Z,57.00
2018-08-20T03:56:08.037Z,57.20
2018-08-20T03:58:39.404Z,57.00
2018-08-20T04:01:10.918Z,57.50
2018-08-20T04:03:42.336Z,57.40
2018-08-20T04:06:13.719Z,57.50
2018-08-20T04:08:44.912Z,57.60
2018-08-20T04:11:16.456Z,58.20
2018-08-20T04:13:47.981Z,58.20
2018-08-20T04:16:19.216Z,57.80
2018-08-20T04:18:55.019Z,57.50
2018-08-20T04:21:26.384Z,57.40
2018-08-20T04:23:57.839Z,57.30
2018-08-20T04:26:29.284Z,56.90
2018-08-20T04:29:00.983Z,56.50
2018-08-20T04:31:32.280Z,56.40
2018-08-20T04:34:03.729Z,56.00
2018-08-20T04:36:35.298Z,55.60
2018-08-20T04:39:08.456Z,55.20
2018-08-20T04:41:40.126Z,55.20
2018-08-20T04:44:11.582Z,55.40
2018-08-20T04:46:42.865Z,56.20
2018-08-20T04:49:14.381Z,56.00
2018-08-20T04:51:45.721Z,55.90
2018-08-20T04:54:17.263Z,55.70
2018-08-20T04:56:48.867Z,55.80
2018-08-20T04:59:20.360Z,55.70
2018-08-20T05:01:51.818Z,55.80
2018-08-20T05:04:23.111Z,56.20
2018-08-20T05:06:54.541Z,56.40
2018-08-20T05:09:25.902Z,56.60
2018-08-20T05:11:57.524Z,56.70
2018-08-20T05:14:28.914Z,56.70
2018-08-20T05:17:00.152Z,56.60
2018-08-20T05:19:31.783Z,56.30
2018-08-20T05:22:03.215Z,55.50
2018-08-20T05:24:34.480Z,53.40
2018-08-20T05:27:06.196Z,52.30
2018-08-20T05:29:37.456Z,49.90
2018-08-20T05:32:08.986Z,49.70
2018-08-20T05:34:40.308Z,49.50
2018-08-20T05:37:11.624Z,49.00
2018-08-20T05:39:43.099Z,47.50
2018-08-20T05:42:14.792Z,47.10
2018-08-20T05:44:46.209Z,46.60
2018-08-20T05:47:17.441Z,45.30
2018-08-20T05:49:48.804Z,45.30
2018-08-20T05:52:20.275Z,45.40
2018-08-20T05:54:51.586Z,45.00
2018-08-20T05:57:23.011Z,44.80
2018-08-20T05:59:57.418Z,44.80
2018-08-20T06:02:28.991Z,44.40
2018-08-20T06:05:00.350Z,43.60
2018-08-20T06:07:31.709Z,44.00
2018-08-20T06:10:03.264Z,43.40
2018-08-20T06:12:35.211Z,44.00
2018-08-20T06:15:12.814Z,44.10
2018-08-20T06:17:44.441Z,42.90
2018-08-20T06:20:18.235Z,42.60
2018-08-20T06:22:49.547Z,42.80
2018-08-20T06:25:20.995Z,43.00
2018-08-20T06:27:52.682Z,42.00
2018-08-20T06:30:24.028Z,42.40
2018-08-20T06:32:55.518Z,42.70
2018-08-20T06:35:27.152Z,42.70
2018-08-20T06:37:58.622Z,42.20
2018-08-20T06:40:30.155Z,41.80
2018-08-20T06:43:01.526Z,41.40
2018-08-20T06:45:32.984Z,40.90
2018-08-20T06:48:04.483Z,41.20
2018-08-20T06:50:35.903Z,41.10
2018-08-20T06:53:07.535Z,39.40
2018-08-20T06:55:38.887Z,39.80
2018-08-20T06:58:10.851Z,40.90
2018-08-20T07:00:42.228Z,41.60
2018-08-20T07:03:13.512Z,41.00
2018-08-20T07:05:44.895Z,40.50
2018-08-20T07:08:16.415Z,40.10
2018-08-20T07:10:48.746Z,39.20
2018-08-20T07:13:27.973Z,38.30
2018-08-20T07:15:59.320Z,37.50
2018-08-20T07:18:30.821Z,37.40
2018-08-20T07:21:02.344Z,37.50
2018-08-20T07:23:33.710Z,36.80
2018-08-20T07:26:05.034Z,36.60
2018-08-20T07:28:36.348Z,37.90
2018-08-20T07:31:07.729Z,38.00
2018-08-20T07:33:39.097Z,38.80
2018-08-20T07:36:10.308Z,38.00
2018-08-20T07:38:41.878Z,37.10
2018-08-20T07:41:13.238Z,36.80
2018-08-20T07:43:44.753Z,37.40
2018-08-20T07:46:16.440Z,37.80
2018-08-20T07:48:48.192Z,37.80
2018-08-20T07:51:20.763Z,38.10
2018-08-20T07:53:51.952Z,38.80
2018-08-20T07:56:23.362Z,39.20
2018-08-20T07:58:54.871Z,39.20
2018-08-20T08:01:26.263Z,40.60
2018-08-20T08:03:57.755Z,40.90
2018-08-20T08:06:29.264Z,41.10
2018-08-20T08:09:00.676Z,40.90
2018-08-20T08:11:32.222Z,40.70
2018-08-20T08:14:03.704Z,40.70
2018-08-20T08:16:35.880Z,41.20
2018-08-20T08:19:07.789Z,41.00
2018-08-20T08:21:39.252Z,40.60
2018-08-20T08:24:10.894Z,41.30
2018-08-20T08:26:42.512Z,40.80
2018-08-20T08:29:13.934Z,40.70
2018-08-20T08:31:45.441Z,40.90
2018-08-20T08:34:16.800Z,40.80
2018-08-20T08:36:48.129Z,40.50
2018-08-20T08:39:19.422Z,39.90
2018-08-20T08:41:50.740Z,39.50
2018-08-20T08:44:22.203Z,39.10
2018-08-20T08:46:53.743Z,38.80
2018-08-20T08:49:24.913Z,38.10
2018-08-20T08:51:57.074Z,37.70
2018-08-20T08:54:28.647Z,37.40
2018-08-20T08:56:59.857Z,37.50
2018-08-20T08:59:31.526Z,36.60
2018-08-20T09:02:03.209Z,36.40
2018-08-20T09:04:34.616Z,35.80
2018-08-20T09:07:06.154Z,35.30
2018-08-20T09:09:37.635Z,35.80
2018-08-20T09:12:08.970Z,36.30
2018-08-20T09:14:40.428Z,36.30
2018-08-20T09:17:11.932Z,36.70
2018-08-20T09:19:43.428Z,36.10
2018-08-20T09:22:14.603Z,34.70
2018-08-20T09:24:46.295Z,34.70
2018-08-20T09:27:17.759Z,32.50
2018-08-20T09:29:49.249Z,32.20
2018-08-20T09:32:20.864Z,31.80
2018-08-20T09:34:52.134Z,30.70
2018-08-20T09:37:23.698Z,30.10
2018-08-20T09:39:54.682Z,30.50
2018-08-20T09:42:26.455Z,30.60
2018-08-20T09:44:58.671Z,30.30
2018-08-20T09:47:30.398Z,30.40
2018-08-20T09:50:01.915Z,29.70
2018-08-20T09:52:33.224Z,29.60
2018-08-20T09:55:04.891Z,30.20
2018-08-20T09:57:36.331Z,30.00
2018-08-20T10:00:12.124Z,30.70
2018-08-20T10:02:43.706Z,30.90
2018-08-20T10:05:15.324Z,31.80
2018-08-20T10:07:47.114Z,32.20
2018-08-20T10:10:18.714Z,32.80
2018-08-20T10:12:49.960Z,33.10
2018-08-20T10:15:21.375Z,33.90
2018-08-20T10:17:52.847Z,33.90
2018-08-20T10:20:24.079Z,34.70
2018-08-20T10:22:55.571Z,34.50
2018-08-20T10:25:27.187Z,34.20
2018-08-20T10:27:58.218Z,33.20
2018-08-20T10:30:29.847Z,32.10
2018-08-20T10:33:01.148Z,32.10
2018-08-20T10:35:32.402Z,31.30
2018-08-20T10:38:03.843Z,31.40
2018-08-20T10:40:35.359Z,31.60
2018-08-20T10:43:07.278Z,32.80
2018-08-20T10:45:43.538Z,33.50
2018-08-20T10:48:14.971Z,33.90
2018-08-20T10:50:46.193Z,33.70
2018-08-20T10:53:17.808Z,33.00
2018-08-20T10:55:49.829Z,34.00
2018-08-20T10:58:21.250Z,33.30
2018-08-20T11:00:52.912Z,33.40
2018-08-20T11:03:24.689Z,33.40
2018-08-20T11:05:56.010Z,34.20
2018-08-20T11:08:27.442Z,34.00
2018-08-20T11:10:58.857Z,34.10
2018-08-20T11:13:30.076Z,34.20
2018-08-20T11:16:01.552Z,33.40
2018-08-20T11:18:33.327Z,33.60
2018-08-20T11:21:04.735Z,34.00
2018-08-20T11:23:35.974Z,33.80
2018-08-20T11:26:07.238Z,33.30
2018-08-20T11:28:38.857Z,33.40
2018-08-20T11:31:10.385Z,32.70
2018-08-20T11:33:41.949Z,32.20
2018-08-20T11:36:13.130Z,31.90
2018-08-20T11:38:44.331Z,31.70
2018-08-20T11:41:15.870Z,30.80
2018-08-20T11:43:47.471Z,30.00
2018-08-20T11:46:18.837Z,29.90
2018-08-20T11:48:50.364Z,29.60
2018-08-20T11:51:21.802Z,29.00
2018-08-20T11:53:53.251Z,30.30
2018-08-20T11:56:24.626Z,30.60
2018-08-20T11:58:56.348Z,31.60
2018-08-20T12:01:27.557Z,31.50
2018-08-20T12:03:59.077Z,30.00
2018-08-20T12:06:30.742Z,29.80
2018-08-20T12:09:02.099Z,29.70
2018-08-20T12:11:33.438Z,30.00
2018-08-20T12:14:04.930Z,30.00
2018-08-20T12:16:37.159Z,29.80
2018-08-20T12:19:08.426Z,29.90
2018-08-20T12:21:40.163Z,30.00
2018-08-20T12:24:11.633Z,29.70
2018-08-20T12:26:42.793Z,29.90
2018-08-20T12:29:14.302Z,29.60
2018-08-20T12:31:45.766Z,28.70
2018-08-20T12:34:17.243Z,28.60
2018-08-20T12:36:48.613Z,29.00
2018-08-20T12:39:20.081Z,29.50
2018-08-20T12:41:51.537Z,29.40
2018-08-20T12:44:23.016Z,29.40
2018-08-20T12:46:54.640Z,30.30
2018-08-20T12:49:25.991Z,31.20
2018-08-20T12:51:57.567Z,30.80
2018-08-20T12:54:29.096Z,31.30
2018-08-20T12:57:00.355Z,31.50
2018-08-20T12:59:31.714Z,31.30
2018-08-20T13:02:03.373Z,30.90
2018-08-20T13:04:34.891Z,31.40
2018-08-20T13:07:06.566Z,31.90
2018-08-20T13:09:38.142Z,30.60
2018-08-20T13:12:09.880Z,30.30
2018-08-20T13:14:41.599Z,29.70
2018-08-20T13:17:12.956Z,29.80
2018-08-20T13:19:44.302Z,29.70
2018-08-20T13:22:15.677Z,29.50
2018-08-20T13:24:46.801Z,29.30
2018-08-20T13:27:18.176Z,30.40
2018-08-20T13:29:49.869Z,30.30
2018-08-20T13:32:21.271Z,29.90
2018-08-20T13:34:52.717Z,30.90
2018-08-20T13:37:24.245Z,31.20
2018-08-20T13:39:56.277Z,30.50
2018-08-20T13:42:27.786Z,30.60
2018-08-20T13:45:00.087Z,30.00
2018-08-20T13:47:31.452Z,29.40
2018-08-20T13:50:12.682Z,29.50
2018-08-20T13:52:45.784Z,29.60
2018-08-20T13:55:17.135Z,30.00
2018-08-20T13:57:49.879Z,29.50
2018-08-20T14:00:22.246Z,29.40
2018-08-20T14:02:53.919Z,29.60
2018-08-20T14:05:25.167Z,29.70
2018-08-20T14:07:56.762Z,29.60
2018-08-20T14:10:28.100Z,29.50
2018-08-20T14:12:59.810Z,29.50
2018-08-20T14:15:31.213Z,29.50
2018-08-20T14:18:02.645Z,29.40
2018-08-20T14:20:34.246Z,29.70
2018-08-20T14:23:05.782Z,29.60
2018-08-20T14:25:37.132Z,29.60
2018-08-20T14:28:09.034Z,29.60
2018-08-20T14:30:40.403Z,29.40
2018-08-20T14:33:11.881Z,29.70
2018-08-20T14:35:43.336Z,29.80
2018-08-20T14:38:14.508Z,29.60
2018-08-20T14:40:46.011Z,29.80
2018-08-20T14:43:17.176Z,29.50
2018-08-20T14:45:53.671Z,29.50
2018-08-20T14:48:25.403Z,29.50
2018-08-20T14:50:56.999Z,29.60
2018-08-20T14:53:28.417Z,29.80
2018-08-20T14:55:59.874Z,28.50
2018-08-20T14:58:31.419Z,28.10
2018-08-20T15:01:02.829Z,28.30
2018-08-20T15:03:34.906Z,27.60
2018-08-20T15:06:06.565Z,28.30
2018-08-20T15:08:39.802Z,27.40
2018-08-20T15:11:11.313Z,26.80
2018-08-20T15:13:42.949Z,26.70
2018-08-20T15:16:14.392Z,26.90
2018-08-20T15:18:45.877Z,27.00
2018-08-20T15:21:17.396Z,26.50
2018-08-20T15:23:48.641Z,25.40
2018-08-20T15:26:20.173Z,25.90
2018-08-20T15:28:51.392Z,26.00
2018-08-20T15:31:23.403Z,25.80
2018-08-20T15:33:55.170Z,25.80
2018-08-20T15:36:26.460Z,26.60
2018-08-20T15:38:58.228Z,26.50
2018-08-20T15:41:29.907Z,26.80
2018-08-20T15:44:01.640Z,27.10
2018-08-20T15:46:33.754Z,27.20
2018-08-20T15:49:05.666Z,27.50
2018-08-20T15:51:37.302Z,27.60
2018-08-20T15:54:08.930Z,27.60
2018-08-20T15:56:40.304Z,28.70
2018-08-20T15:59:11.632Z,29.90
2018-08-20T16:01:43.026Z,30.20
2018-08-20T16:04:15.303Z,30.60
2018-08-20T16:06:46.628Z,30.80
2018-08-20T16:09:18.367Z,30.90
2018-08-20T16:11:49.832Z,31.40
2018-08-20T16:14:21.396Z,31.60
2018-08-20T16:16:52.853Z,31.40
2018-08-20T16:19:24.176Z,31.50
2018-08-20T16:21:55.664Z,31.70
2018-08-20T16:24:27.680Z,31.80
2018-08-20T16:26:59.854Z,31.40
2018-08-20T16:29:31.294Z,31.60
2018-08-20T16:32:02.949Z,31.80
2018-08-20T16:34:34.404Z,32.10
2018-08-20T16:37:06.280Z,32.40
2018-08-20T16:39:37.854Z,32.60
2018-08-20T16:42:09.466Z,32.50
2018-08-20T16:44:40.888Z,32.60
2018-08-20T16:47:12.272Z,32.50
2018-08-20T16:49:45.077Z,32.60
2018-08-20T16:52:16.779Z,32.80
2018-08-20T16:54:48.266Z,33.00
2018-08-20T16:57:19.519Z,32.70
2018-08-20T17:07:31.434Z,32.60
2018-08-20T17:10:02.618Z,33.00
2018-08-20T17:12:34.252Z,34.80
2018-08-20T17:15:09.455Z,34.50
2018-08-20T17:17:41.080Z,35.10
2018-08-20T17:20:13.767Z,35.90
2018-08-20T17:22:45.275Z,36.00
2018-08-20T17:25:16.782Z,35.90
2018-08-20T17:27:53.705Z,35.70
2018-08-20T17:30:25.278Z,35.70
2018-08-20T17:32:56.515Z,35.50
2018-08-20T17:35:28.369Z,35.90
2018-08-20T17:38:05.596Z,35.90
2018-08-20T17:40:40.092Z,36.30
2018-08-20T17:43:11.525Z,36.10
2018-08-20T17:45:42.955Z,36.00
2018-08-20T17:48:20.761Z,35.70
2018-08-20T17:50:52.212Z,35.80
2018-08-20T17:53:23.759Z,35.70
2018-08-20T17:55:55.311Z,35.90
2018-08-20T17:58:26.714Z,36.40
2018-08-20T18:00:57.919Z,36.70
2018-08-20T18:03:30.250Z,37.30
2018-08-20T18:06:05.791Z,37.60
2018-08-20T18:08:37.347Z,38.00
2018-08-20T18:11:09.331Z,38.00
2018-08-20T18:13:51.225Z,38.60
2018-08-20T18:16:23.118Z,37.90
2018-08-20T18:18:54.943Z,38.30
2018-08-20T18:21:26.303Z,37.70
2018-08-20T18:23:57.768Z,39.10
2018-08-20T18:26:37.037Z,38.60
2018-08-20T18:29:10.863Z,38.10
2018-08-20T18:31:42.371Z,38.40
2018-08-20T18:34:13.863Z,38.50
2018-08-20T18:36:45.360Z,38.60
2018-08-20T18:39:16.798Z,39.00
2018-08-20T18:42:08.710Z,39.70
2018-08-20T18:44:40.099Z,39.80
2018-08-20T18:47:13.461Z,40.10
2018-08-20T18:49:51.748Z,39.80
2018-08-20T18:52:23.926Z,39.90
2018-08-20T18:54:56.343Z,40.40
2018-08-20T18:57:30.866Z,40.60
2018-08-20T19:00:04.563Z,40.90
2018-08-20T19:02:49.473Z,41.30
2018-08-20T19:05:21.413Z,40.70
2018-08-20T19:07:53.020Z,39.50
2018-08-20T19:10:29.109Z,39.80
2018-08-20T19:13:00.871Z,39.70
2018-08-20T19:15:42.148Z,39.40
2018-08-20T19:18:18.260Z,39.30
2018-08-20T19:20:49.569Z,39.50
2018-08-20T19:23:21.118Z,39.70
2018-08-20T19:25:52.566Z,40.00
2018-08-20T19:28:25.098Z,40.80
2018-08-20T19:30:56.904Z,41.00
2018-08-20T19:33:29.780Z,41.40
2018-08-20T19:36:01.499Z,41.70
2018-08-20T19:38:33.123Z,41.60
2018-08-20T19:41:09.542Z,42.20
2018-08-20T19:43:44.940Z,42.80
2018-08-20T19:46:28.901Z,42.70
2018-08-20T19:49:05.360Z,42.20
2018-08-20T19:51:38.841Z,42.70
2018-08-20T19:54:14.115Z,42.40
2018-08-20T19:56:45.482Z,42.70
2018-08-20T19:59:25.563Z,43.00
2018-08-20T20:01:57.655Z,42.80
2018-08-20T20:04:29.095Z,42.30
2018-08-20T20:07:00.546Z,42.10
2018-08-20T20:09:31.966Z,42.50
2018-08-20T20:12:03.600Z,42.70
2018-08-20T20:14:40.083Z,42.50
2018-08-20T20:17:11.423Z,42.60
2018-08-20T20:19:42.826Z,42.70
2018-08-20T20:22:17.076Z,42.60
2018-08-20T20:24:48.473Z,42.70
2018-08-20T20:27:20.320Z,42.80
2018-08-20T20:29:51.632Z,42.80
2018-08-20T20:32:23.320Z,42.70
2018-08-20T20:34:55.130Z,42.50
2018-08-20T20:37:26.525Z,42.70
2018-08-20T20:40:01.340Z,42.70
2018-08-20T20:42:32.886Z,42.70
2018-08-20T20:45:04.363Z,42.80
2018-08-20T20:47:35.823Z,43.40
2018-08-20T20:50:07.245Z,42.50
2018-08-20T20:52:38.810Z,42.60
2018-08-20T20:55:10.337Z,42.50
2018-08-20T20:57:41.823Z,42.40
2018-08-20T21:00:13.747Z,43.10
2018-08-20T21:02:45.335Z,42.50
2018-08-20T21:05:16.880Z,42.40
2018-08-20T21:07:49.535Z,42.60
2018-08-20T21:10:21.226Z,42.70
2018-08-20T21:12:52.726Z,43.30
2018-08-20T21:15:24.423Z,42.80
2018-08-20T21:17:56.076Z,42.60
2018-08-20T21:20:27.625Z,42.50
2018-08-20T21:22:58.966Z,42.30
2018-08-20T21:25:30.120Z,42.20
2018-08-20T21:28:01.663Z,42.10
2018-08-20T21:30:37.606Z,42.00
2018-08-20T21:33:09.342Z,41.90
2018-08-20T21:35:41.080Z,41.70
2018-08-20T21:38:12.439Z,41.40
2018-08-20T21:40:44.524Z,41.10
2018-08-20T21:43:15.895Z,40.90
2018-08-20T21:45:47.877Z,40.80
2018-08-20T21:48:19.390Z,40.80
2018-08-20T21:50:51.677Z,40.80
2018-08-20T21:53:28.075Z,40.80
2018-08-20T21:56:00.020Z,40.80
2018-08-20T21:58:31.280Z,41.00
2018-08-20T22:01:02.892Z,40.90
2018-08-20T22:03:34.127Z,41.00
2018-08-20T22:06:05.670Z,41.00
2018-08-20T22:08:37.439Z,41.10
2018-08-20T22:11:09.648Z,41.20
2018-08-20T22:13:40.896Z,41.30
2018-08-20T22:16:18.537Z,41.50
2018-08-20T22:18:58.465Z,41.60
2018-08-20T22:21:29.930Z,41.60
2018-08-20T22:24:02.956Z,41.80
2018-08-20T22:26:35.094Z,41.80
2018-08-20T22:29:06.576Z,42.00
2018-08-20T22:31:43.267Z,41.90
2018-08-20T22:34:14.708Z,42.00
2018-08-20T22:36:46.993Z,42.00
2018-08-20T22:39:18.239Z,42.10
2018-08-20T22:41:50.007Z,42.20
2018-08-20T22:44:21.651Z,42.20
2018-08-20T22:46:53.350Z,42.20
2018-08-20T22:49:24.853Z,42.10
2018-08-20T22:51:56.392Z,41.90
2018-08-20T22:54:28.208Z,42.20
2018-08-20T22:57:00.010Z,42.40
2018-08-20T22:59:31.597Z,42.60
2018-08-20T23:02:02.839Z,42.70
2018-08-20T23:04:34.364Z,42.70
2018-08-20T23:07:09.794Z,42.90
2018-08-20T23:09:41.567Z,42.90
2018-08-20T23:12:12.908Z,43.10
2018-08-20T23:14:44.383Z,43.70
2018-08-20T23:17:15.888Z,43.40
2018-08-20T23:19:47.181Z,43.20
2018-08-20T23:22:18.532Z,43.30
2018-08-20T23:24:57.208Z,43.30
2018-08-20T23:27:33.477Z,43.30
2018-08-20T23:30:05.373Z,43.40
2018-08-20T23:32:36.943Z,43.50
2018-08-20T23:35:08.421Z,43.10
2018-08-20T23:37:40.112Z,43.30
2018-08-20T23:40:11.541Z,43.40
2018-08-20T23:42:43.036Z,43.40
2018-08-20T23:45:14.556Z,43.40
2018-08-20T23:47:45.997Z,43.70
2018-08-20T23:50:17.285Z,43.70
2018-08-20T23:52:48.604Z,44.70
2018-08-20T23:55:19.881Z,43.90
2018-08-20T23:57:51.126Z,44.20
